This is the latest recevied weather packets stored in our database for station/object DB0SWS-13. If no packets are shown the sender has not sent any weather packets the latest 1 day(s).
| Time | Temp. | Humidity | Pressure | Rain* | Wind** | Luminosity | Snow |
|---|---|---|---|---|---|---|---|
| 1788622650 | 26.67° C | 36% | 1027.2 hPa | - | - | - | - |
| 1788621750 | 26.11° C | 37% | 1027.2 hPa | - | - | - | - |
| 1788620850 | 25.56° C | 40% | 1027.2 hPa | - | - | - | - |
| 1788619950 | 25° C | 43% | 1027.2 hPa | - | - | - | - |
| 1788619050 | 25° C | 45% | 1027.3 hPa | - | - | - | - |
| 1788618150 | 23.89° C | 43% | 1027.2 hPa | - | - | - | - |
| 1788617250 | 23.89° C | 46% | 1027.4 hPa | - | - | - | - |
| 1788616350 | 23.89° C | 49% | 1027.3 hPa | - | - | - | - |
| 1788615450 | 22.78° C | 52% | 1027.5 hPa | - | - | - | - |
| 1788614550 | 22.22° C | 50% | 1027.4 hPa | - | - | - | - |
| 1788613649 | 22.78° C | 51% | 1027.4 hPa | - | - | - | - |
| 1788612749 | 22.22° C | 52% | 1027.5 hPa | - | - | - | - |
| 1788611849 | 21.67° C | 54% | 1027.5 hPa | - | - | - | - |
| 1788610949 | 22.22° C | 54% | 1027.4 hPa | - | - | - | - |
| 1788610049 | 22.22° C | 53% | 1027.4 hPa | - | - | - | - |
| 1788609149 | 21.67° C | 56% | 1027.5 hPa | - | - | - | - |
| 1788608249 | 21.11° C | 56% | 1027.5 hPa | - | - | - | - |
| 1788607348 | 21.67° C | 56% | 1027.4 hPa | - | - | - | - |
| 1788606450 | 22.22° C | 59% | 1027.5 hPa | - | - | - | - |
| 1788605550 | 21.11° C | 63% | 1027.5 hPa | - | - | - | - |
| 1788604650 | 20° C | 63% | 1027.5 hPa | - | - | - | - |
| 1788603750 | 21.11° C | 66% | 1027.5 hPa | - | - | - | - |
| 1788602850 | 19.44° C | 69% | 1027.5 hPa | - | - | - | - |
| 1788601950 | 19.44° C | 68% | 1027.5 hPa | - | - | - | - |
| 1788601050 | 19.44° C | 68% | 1027.3 hPa | - | - | - | - |
* Rain since midnight (hover to see other rain measurements)
** Current wind speed in m/s (hover to see current wind gust speed)